createdAt,value
2018-06-28T00:00:51.117Z,3.43
2018-06-28T00:03:19.362Z,3.03
2018-06-28T00:05:49.520Z,2.93
2018-06-28T00:08:18.145Z,3.10
2018-06-28T00:10:47.399Z,3.23
2018-06-28T00:13:16.396Z,3.07
2018-06-28T00:15:45.550Z,3.23
2018-06-28T00:18:14.141Z,3.30
2018-06-28T00:20:42.811Z,3.47
2018-06-28T00:23:11.451Z,3.23
2018-06-28T00:25:39.686Z,3.50
2018-06-28T00:28:08.294Z,4.10
2018-06-28T00:30:36.934Z,3.30
2018-06-28T00:33:05.575Z,3.10
2018-06-28T00:35:33.859Z,3.47
2018-06-28T00:38:02.401Z,3.53
2018-06-28T00:40:31.000Z,3.53
2018-06-28T00:42:59.590Z,3.50
2018-06-28T00:45:28.139Z,3.07
2018-06-28T00:47:56.673Z,3.47
2018-06-28T00:50:25.290Z,3.63
2018-06-28T00:52:53.837Z,3.40
2018-06-28T00:55:22.419Z,3.83
2018-06-28T00:57:50.976Z,3.10
2018-06-28T01:00:19.535Z,3.63
2018-06-28T01:02:49.497Z,3.90
2018-06-28T01:05:17.768Z,3.77
2018-06-28T01:07:46.674Z,3.93
2018-06-28T01:10:15.815Z,3.73
2018-06-28T01:12:44.377Z,4.10
2018-06-28T01:15:13.026Z,3.97
2018-06-28T01:17:41.548Z,3.80
2018-06-28T01:20:10.192Z,3.70
2018-06-28T01:22:38.479Z,3.73
2018-06-28T01:25:07.093Z,3.90
2018-06-28T01:27:35.725Z,3.50
2018-06-28T01:30:04.012Z,3.90
2018-06-28T01:32:32.557Z,3.60
2018-06-28T01:35:01.160Z,3.90
2018-06-28T01:37:29.689Z,3.93
2018-06-28T01:39:58.278Z,4.13
2018-06-28T01:43:42.672Z,4.00
2018-06-28T01:46:11.349Z,4.47
2018-06-28T01:48:39.911Z,4.40
2018-06-28T01:51:08.548Z,4.13
2018-06-28T01:53:36.838Z,4.40
2018-06-28T01:56:05.581Z,3.47
2018-06-28T01:58:34.152Z,4.20
2018-06-28T02:01:02.728Z,4.27
2018-06-28T02:03:31.304Z,4.47
2018-06-28T02:06:00.111Z,3.67
2018-06-28T02:08:28.720Z,4.33
2018-06-28T02:10:58.250Z,4.10
2018-06-28T02:13:27.485Z,4.47
2018-06-28T02:15:56.055Z,4.37
2018-06-28T02:18:24.705Z,4.57
2018-06-28T02:20:53.287Z,4.73
2018-06-28T02:23:21.924Z,4.30
2018-06-28T02:25:50.454Z,5.00
2018-06-28T02:28:18.744Z,4.40
2018-06-28T02:30:47.005Z,5.13
2018-06-28T02:33:15.293Z,4.33
2018-06-28T02:35:43.538Z,4.83
2018-06-28T02:38:12.113Z,4.37
2018-06-28T02:40:40.719Z,5.53
2018-06-28T02:43:09.038Z,4.97
2018-06-28T02:45:37.586Z,4.80
2018-06-28T02:48:06.136Z,4.70
2018-06-28T02:50:34.762Z,4.80
2018-06-28T02:53:03.316Z,4.50
2018-06-28T02:55:31.984Z,4.80
2018-06-28T02:58:00.532Z,4.70
2018-06-28T03:00:29.156Z,5.40
2018-06-28T03:02:57.711Z,5.00
2018-06-28T03:05:26.341Z,4.80
2018-06-28T03:07:54.856Z,5.00
2018-06-28T03:10:23.450Z,4.83
2018-06-28T03:12:52.052Z,5.23
2018-06-28T03:15:20.619Z,5.40
2018-06-28T03:17:49.183Z,5.30
2018-06-28T03:20:18.500Z,5.00
2018-06-28T03:22:47.454Z,5.40
2018-06-28T03:25:16.626Z,5.27
2018-06-28T03:27:45.263Z,5.10
2018-06-28T03:30:13.828Z,5.93
2018-06-28T03:32:42.113Z,5.90
2018-06-28T03:35:10.753Z,5.70
2018-06-28T03:37:39.360Z,5.57
2018-06-28T03:40:07.642Z,6.60
2018-06-28T03:42:35.895Z,6.17
2018-06-28T03:45:04.963Z,6.00
2018-06-28T03:47:33.509Z,7.27
2018-06-28T03:50:02.381Z,6.03
2018-06-28T03:52:30.986Z,6.50
2018-06-28T03:54:59.549Z,6.10
2018-06-28T03:57:28.205Z,5.27
2018-06-28T03:59:56.717Z,5.80
2018-06-28T04:02:24.992Z,6.10
2018-06-28T04:04:53.541Z,5.43
2018-06-28T04:07:22.122Z,5.90
2018-06-28T04:09:50.700Z,6.07
2018-06-28T04:12:20.041Z,6.37
2018-06-28T04:14:49.370Z,5.70
2018-06-28T04:17:17.981Z,5.00
2018-06-28T04:19:48.113Z,5.93
2018-06-28T04:22:23.818Z,5.53
2018-06-28T04:24:55.861Z,4.93
2018-06-28T04:27:28.908Z,4.70
2018-06-28T04:29:57.783Z,4.77
2018-06-28T04:32:27.720Z,5.00
2018-06-28T04:34:56.408Z,4.97
2018-06-28T04:37:25.101Z,4.83
2018-06-28T04:39:53.720Z,4.60
2018-06-28T04:42:22.091Z,4.77
2018-06-28T04:44:50.431Z,5.57
2018-06-28T04:47:20.099Z,4.40
2018-06-28T04:49:49.992Z,4.30
2018-06-28T04:52:19.335Z,4.77
2018-06-28T04:54:49.899Z,4.90
2018-06-28T04:57:19.603Z,4.57
2018-06-28T04:59:49.146Z,5.03
2018-06-28T05:02:18.331Z,4.80
2018-06-28T05:04:47.286Z,4.33
2018-06-28T05:07:15.888Z,4.73
2018-06-28T05:09:44.440Z,4.30
2018-06-28T05:12:13.051Z,4.83
2018-06-28T05:14:41.613Z,4.33
2018-06-28T05:17:10.245Z,4.60
2018-06-28T05:19:38.885Z,4.30
2018-06-28T05:22:07.491Z,4.93
2018-06-28T05:24:36.127Z,4.77
2018-06-28T05:27:04.997Z,4.60
2018-06-28T05:29:33.595Z,4.33
2018-06-28T05:32:02.224Z,3.97
2018-06-28T05:34:30.886Z,3.87
2018-06-28T05:36:59.417Z,4.40
2018-06-28T05:39:27.745Z,3.70
2018-06-28T05:41:56.304Z,4.03
2018-06-28T05:44:24.920Z,3.73
2018-06-28T05:46:53.453Z,4.13
2018-06-28T05:49:22.066Z,4.60
2018-06-28T05:51:50.742Z,4.40
2018-06-28T05:54:20.735Z,3.97
2018-06-28T05:56:50.230Z,4.10
2018-06-28T05:59:19.798Z,3.93
2018-06-28T06:01:49.597Z,4.10
2018-06-28T06:04:18.996Z,3.50
2018-06-28T06:06:48.670Z,3.93
2018-06-28T06:09:17.617Z,4.20
2018-06-28T06:11:46.220Z,4.17
2018-06-28T06:14:14.820Z,3.53
2018-06-28T06:16:43.414Z,3.77
2018-06-28T06:19:11.663Z,4.27
2018-06-28T06:21:40.350Z,3.90
2018-06-28T06:24:08.965Z,3.97
2018-06-28T06:26:37.615Z,4.03
2018-06-28T06:29:06.165Z,3.67
2018-06-28T06:31:34.833Z,3.67
2018-06-28T06:34:03.476Z,3.77
2018-06-28T06:36:32.030Z,3.53
2018-06-28T06:39:00.703Z,4.10
2018-06-28T06:41:29.303Z,3.60
2018-06-28T06:43:57.938Z,3.77
2018-06-28T06:46:26.571Z,3.00
2018-06-28T06:48:55.372Z,3.17
2018-06-28T06:51:23.929Z,3.60
2018-06-28T06:53:52.518Z,3.70
2018-06-28T06:56:21.067Z,3.50
2018-06-28T06:58:50.703Z,3.43
2018-06-28T07:01:20.431Z,3.73
2018-06-28T07:03:49.773Z,3.30
2018-06-28T07:06:18.655Z,3.50
2018-06-28T07:08:47.711Z,3.20
2018-06-28T07:11:16.294Z,3.93
2018-06-28T07:13:44.796Z,2.93
2018-06-28T07:16:13.310Z,3.17
2018-06-28T07:18:41.911Z,3.17
2018-06-28T07:21:10.559Z,3.47
2018-06-28T07:23:39.131Z,3.37
2018-06-28T07:26:07.730Z,3.60
2018-06-28T07:28:36.061Z,3.27
2018-06-28T07:31:04.651Z,3.67
2018-06-28T07:33:33.339Z,3.40
2018-06-28T07:36:01.872Z,3.53
2018-06-28T07:38:30.455Z,3.53
2018-06-28T07:40:58.984Z,3.40
2018-06-28T07:43:27.550Z,2.47
2018-06-28T07:45:56.164Z,3.20
2018-06-28T07:48:24.742Z,3.10
2018-06-28T07:50:53.829Z,3.07
2018-06-28T07:53:22.486Z,3.33
2018-06-28T07:55:51.839Z,3.10
2018-06-28T07:58:20.084Z,2.90
2018-06-28T08:00:49.131Z,3.23
2018-06-28T08:03:18.139Z,3.03
2018-06-28T08:05:46.660Z,2.40
2018-06-28T08:08:15.293Z,2.70
2018-06-28T08:10:43.860Z,3.08
2018-06-28T08:13:12.495Z,3.33
2018-06-28T08:15:41.563Z,2.67
2018-06-28T08:18:12.356Z,2.98
2018-06-28T08:20:43.254Z,3.10
2018-06-28T08:23:12.217Z,3.15
2018-06-28T08:25:41.133Z,3.08
2018-06-28T08:28:10.108Z,2.83
2018-06-28T08:30:38.940Z,2.80
2018-06-28T08:33:07.761Z,3.35
2018-06-28T08:35:36.494Z,2.90
2018-06-28T08:38:05.360Z,3.33
2018-06-28T08:40:34.579Z,3.35
2018-06-28T08:43:03.316Z,2.42
2018-06-28T08:45:32.667Z,3.05
2018-06-28T08:48:01.463Z,3.08
2018-06-28T08:50:30.312Z,2.60
2018-06-28T08:52:58.736Z,2.92
2018-06-28T08:55:27.458Z,2.75
2018-06-28T08:57:56.485Z,3.30
2018-06-28T09:00:25.114Z,2.92
2018-06-28T09:02:53.970Z,2.83
2018-06-28T09:05:22.709Z,2.83
2018-06-28T09:07:51.265Z,2.72
2018-06-28T09:10:20.828Z,2.60
2018-06-28T09:12:50.070Z,2.70
2018-06-28T09:15:19.488Z,2.83
2018-06-28T09:17:48.786Z,2.87
2018-06-28T09:20:23.023Z,3.12
2018-06-28T09:22:52.438Z,3.15
2018-06-28T09:25:21.859Z,2.58
2018-06-28T09:27:51.321Z,3.08
2018-06-28T09:30:20.707Z,2.55
2018-06-28T09:32:50.960Z,3.30
2018-06-28T09:35:20.674Z,2.70
2018-06-28T09:37:51.118Z,2.98
2018-06-28T09:40:20.881Z,2.30
2018-06-28T09:42:50.313Z,3.45
2018-06-28T09:45:19.402Z,2.80
2018-06-28T09:47:48.898Z,2.45
2018-06-28T09:50:17.844Z,2.80
2018-06-28T09:52:47.875Z,2.70
2018-06-28T09:55:17.189Z,3.58
2018-06-28T09:57:46.447Z,3.02
2018-06-28T10:00:19.905Z,2.60
2018-06-28T10:02:49.097Z,2.90
2018-06-28T10:05:17.853Z,2.70
2018-06-28T10:07:47.302Z,2.83
2018-06-28T10:10:15.944Z,2.65
2018-06-28T10:12:44.903Z,2.80
2018-06-28T10:15:14.037Z,2.70
2018-06-28T10:17:42.855Z,2.75
2018-06-28T10:20:12.284Z,2.75
2018-06-28T10:22:41.345Z,2.98
2018-06-28T10:25:10.533Z,3.00
2018-06-28T10:27:39.772Z,2.85
2018-06-28T10:30:08.876Z,3.05
2018-06-28T10:32:37.937Z,3.02
2018-06-28T10:35:06.790Z,2.65
2018-06-28T10:37:36.813Z,2.72
2018-06-28T10:40:07.073Z,3.05
2018-06-28T10:42:36.004Z,2.90
2018-06-28T10:45:08.655Z,3.05
2018-06-28T10:47:43.258Z,3.08
2018-06-28T10:50:12.721Z,3.12
2018-06-28T10:52:41.459Z,2.58
2018-06-28T10:55:22.044Z,3.42
2018-06-28T10:57:51.808Z,2.75
2018-06-28T11:00:22.389Z,2.70
2018-06-28T11:02:52.688Z,2.50
2018-06-28T11:05:22.370Z,3.00
2018-06-28T11:07:52.520Z,3.17
2018-06-28T11:10:22.517Z,2.45
2018-06-28T11:12:51.945Z,2.87
2018-06-28T11:15:24.599Z,2.87
2018-06-28T11:18:08.833Z,2.72
2018-06-28T11:20:42.464Z,2.72
2018-06-28T11:23:11.590Z,2.30
2018-06-28T11:25:41.711Z,2.67
2018-06-28T11:28:10.504Z,2.60
2018-06-28T11:30:39.900Z,3.10
2018-06-28T11:33:09.502Z,2.33
2018-06-28T11:35:38.955Z,2.50
2018-06-28T11:38:09.654Z,2.65
2018-06-28T11:40:38.583Z,2.52
2018-06-28T11:43:08.863Z,2.52
2018-06-28T11:45:38.014Z,2.40
2018-06-28T11:48:07.473Z,2.60
2018-06-28T11:50:36.408Z,2.62
2018-06-28T11:53:05.744Z,2.62
2018-06-28T11:55:35.928Z,2.33
2018-06-28T11:58:05.131Z,2.50
2018-06-28T12:00:34.776Z,2.70
2018-06-28T12:03:04.094Z,2.50
2018-06-28T12:05:33.852Z,2.62
2018-06-28T12:08:03.865Z,2.55
2018-06-28T12:10:33.700Z,2.83
2018-06-28T12:13:03.191Z,2.90
2018-06-28T12:15:33.151Z,2.75
2018-06-28T12:18:02.504Z,2.60
2018-06-28T12:20:32.472Z,2.50
2018-06-28T12:23:02.050Z,3.10
2018-06-28T12:25:31.469Z,2.90
2018-06-28T12:28:00.824Z,2.60
2018-06-28T12:30:31.028Z,2.70
2018-06-28T12:32:59.828Z,2.83
2018-06-28T12:35:29.798Z,2.90
2018-06-28T12:38:00.823Z,2.67
2018-06-28T12:40:29.984Z,2.58
2018-06-28T12:42:59.215Z,2.40
2018-06-28T12:45:28.118Z,2.33
2018-06-28T12:48:03.100Z,2.50
2018-06-28T12:50:33.717Z,2.58
2018-06-28T12:53:05.112Z,2.62
2018-06-28T12:55:46.038Z,2.92
2018-06-28T12:58:15.608Z,2.30
2018-06-28T13:00:44.449Z,2.62
2018-06-28T13:03:14.724Z,2.30
2018-06-28T13:05:43.541Z,2.80
2018-06-28T13:08:15.235Z,2.40
2018-06-28T13:10:45.565Z,2.42
2018-06-28T13:13:15.859Z,2.40
2018-06-28T13:15:45.684Z,2.42
2018-06-28T13:18:16.010Z,2.42
2018-06-28T13:20:45.144Z,2.58
2018-06-28T13:23:14.512Z,2.37
2018-06-28T13:25:45.024Z,2.30
2018-06-28T13:28:16.352Z,2.50
2018-06-28T13:30:46.327Z,2.08
2018-06-28T13:33:28.883Z,2.40
2018-06-28T13:35:58.102Z,2.30
2018-06-28T13:38:27.303Z,2.10
2018-06-28T13:40:55.900Z,2.62
2018-06-28T13:43:25.188Z,2.25
2018-06-28T13:45:54.030Z,2.35
2018-06-28T13:48:22.835Z,2.33
2018-06-28T13:50:52.685Z,2.70
2018-06-28T13:53:21.389Z,2.15
2018-06-28T13:55:50.366Z,3.17
2018-06-28T13:58:19.411Z,2.30
2018-06-28T14:00:48.605Z,2.42
2018-06-28T14:03:18.503Z,2.40
2018-06-28T14:05:48.020Z,2.05
2018-06-28T14:08:17.442Z,2.80
2018-06-28T14:10:46.810Z,2.77
2018-06-28T14:13:15.568Z,2.12
2018-06-28T14:15:45.161Z,2.75
2018-06-28T14:18:15.700Z,2.42
2018-06-28T14:20:48.716Z,2.05
2018-06-28T14:23:18.300Z,2.52
2018-06-28T14:25:48.027Z,2.40
2018-06-28T14:28:17.571Z,2.08
2018-06-28T14:30:47.677Z,2.40
2018-06-28T14:33:17.358Z,2.58
2018-06-28T14:35:46.437Z,2.15
2018-06-28T14:38:15.489Z,2.30
2018-06-28T14:40:45.874Z,2.60
2018-06-28T14:43:14.275Z,2.70
2018-06-28T14:45:42.987Z,2.50
2018-06-28T14:48:11.620Z,1.75
2018-06-28T14:50:40.251Z,2.65
2018-06-28T14:53:08.821Z,2.10
2018-06-28T14:55:37.423Z,2.17
2018-06-28T14:58:06.059Z,2.35
2018-06-28T15:00:34.314Z,2.00
2018-06-28T15:03:02.878Z,2.62
2018-06-28T15:05:31.654Z,2.70
2018-06-28T15:08:00.196Z,2.47
2018-06-28T15:10:28.582Z,2.40
2018-06-28T15:12:57.142Z,2.37
2018-06-28T15:15:25.767Z,2.42
2018-06-28T15:17:54.363Z,2.05
2018-06-28T15:20:22.951Z,2.27
2018-06-28T15:22:51.581Z,2.47
2018-06-28T15:25:19.824Z,2.35
2018-06-28T15:27:48.434Z,2.47
2018-06-28T15:30:17.967Z,2.52
2018-06-28T15:32:46.592Z,2.02
2018-06-28T15:35:15.693Z,2.52
2018-06-28T15:37:44.271Z,2.65
2018-06-28T15:40:13.530Z,3.00
2018-06-28T15:42:42.204Z,2.67
2018-06-28T15:45:10.642Z,2.60
2018-06-28T15:47:39.437Z,2.72
2018-06-28T15:50:08.139Z,2.42
2018-06-28T15:52:36.816Z,2.40
2018-06-28T15:55:05.412Z,3.02
2018-06-28T15:57:34.053Z,2.65
2018-06-28T16:00:02.621Z,3.00
2018-06-28T16:02:31.550Z,2.42
2018-06-28T16:05:00.192Z,2.40
2018-06-28T16:07:28.772Z,2.77
2018-06-28T16:09:57.467Z,2.45
2018-06-28T16:12:26.021Z,2.62
2018-06-28T16:14:54.610Z,2.15
2018-06-28T16:17:23.274Z,2.60
2018-06-28T16:19:52.231Z,2.52
2018-06-28T16:22:40.905Z,2.77
2018-06-28T16:25:43.827Z,2.67
2018-06-28T16:28:13.167Z,2.27
2018-06-28T16:30:41.930Z,2.37
2018-06-28T16:33:10.713Z,2.20
2018-06-28T16:35:39.791Z,2.80
2018-06-28T16:38:08.214Z,2.17
2018-06-28T16:40:37.285Z,2.57
2018-06-28T16:43:06.263Z,2.62
2018-06-28T16:45:36.381Z,2.42
2018-06-28T16:48:05.388Z,2.37
2018-06-28T16:50:34.220Z,2.45
2018-06-28T16:53:04.499Z,2.20
2018-06-28T16:55:33.824Z,1.90
2018-06-28T16:58:02.696Z,2.50
2018-06-28T17:00:31.950Z,2.40
2018-06-28T17:03:01.253Z,2.08
2018-06-28T17:05:36.173Z,2.22
2018-06-28T17:08:06.298Z,2.37
2018-06-28T17:10:35.745Z,2.50
2018-06-28T17:13:04.517Z,2.30
2018-06-28T17:15:33.711Z,2.47
2018-06-28T17:18:03.643Z,1.92
2018-06-28T17:20:33.681Z,2.45
2018-06-28T17:23:02.607Z,2.47
2018-06-28T17:25:31.650Z,2.45
2018-06-28T17:28:01.244Z,2.20
2018-06-28T17:30:31.738Z,2.70
2018-06-28T17:33:02.103Z,2.40
2018-06-28T17:35:31.938Z,2.47
2018-06-28T17:38:01.661Z,2.90
2018-06-28T17:40:31.249Z,2.57
2018-06-28T17:43:00.934Z,2.50
2018-06-28T17:45:30.455Z,2.70
2018-06-28T17:47:59.702Z,2.77
2018-06-28T17:50:29.335Z,2.10
2018-06-28T17:52:57.578Z,2.33
2018-06-28T17:55:27.091Z,2.62
2018-06-28T17:57:55.650Z,2.47
2018-06-28T18:00:24.240Z,2.70
2018-06-28T18:02:52.935Z,2.90
2018-06-28T18:05:21.547Z,2.50
2018-06-28T18:07:50.156Z,3.10
2018-06-28T18:10:18.846Z,2.67
2018-06-28T18:12:47.704Z,2.83
2018-06-28T18:15:16.666Z,2.50
2018-06-28T18:17:45.305Z,2.20
2018-06-28T18:20:13.761Z,2.70
2018-06-28T18:22:42.597Z,2.50
2018-06-28T18:25:11.424Z,2.23
2018-06-28T18:27:40.365Z,2.73
2018-06-28T18:30:09.222Z,2.80
2018-06-28T18:32:37.940Z,2.80
2018-06-28T18:35:06.800Z,2.63
2018-06-28T18:37:35.090Z,2.33
2018-06-28T18:40:03.843Z,2.10
2018-06-28T18:42:33.291Z,3.40
2018-06-28T18:45:02.282Z,2.50
2018-06-28T18:47:31.176Z,2.70
2018-06-28T18:50:00.475Z,2.40
2018-06-28T18:52:29.767Z,1.90
2018-06-28T18:54:58.810Z,2.20
2018-06-28T18:57:27.451Z,2.10
2018-06-28T18:59:56.075Z,2.40
2018-06-28T19:02:24.734Z,2.60
2018-06-28T19:04:53.328Z,2.33
2018-06-28T19:07:22.138Z,2.53
2018-06-28T19:09:56.141Z,1.90
2018-06-28T19:12:24.722Z,2.30
2018-06-28T19:14:59.800Z,2.10
2018-06-28T19:17:29.011Z,1.87
2018-06-28T19:19:58.774Z,2.30
2018-06-28T19:22:32.720Z,2.20
2018-06-28T19:25:01.132Z,2.17
2018-06-28T19:27:31.062Z,2.07
2018-06-28T19:30:05.285Z,2.00
2018-06-28T19:32:35.092Z,2.20
2018-06-28T19:35:04.174Z,1.90
2018-06-28T19:37:52.464Z,1.90
2018-06-28T19:40:26.909Z,2.20
2018-06-28T19:43:08.104Z,2.00
2018-06-28T19:45:36.933Z,2.00
2018-06-28T19:48:05.806Z,2.13
2018-06-28T19:50:39.833Z,2.30
2018-06-28T19:53:12.735Z,2.00
2018-06-28T19:55:41.376Z,2.10
2018-06-28T19:58:09.980Z,2.23
2018-06-28T20:00:43.754Z,2.10
2018-06-28T20:04:16.816Z,2.43
2018-06-28T20:06:45.127Z,2.10
2018-06-28T20:09:14.973Z,2.50
2018-06-28T20:11:43.314Z,2.03
2018-06-28T20:14:17.290Z,2.17
2018-06-28T20:16:51.374Z,2.43
2018-06-28T20:19:25.329Z,2.30
2018-06-28T20:21:53.982Z,1.90
2018-06-28T20:24:22.709Z,2.33
2018-06-28T20:26:56.691Z,2.33
2018-06-28T20:29:30.727Z,2.23
2018-06-28T20:32:05.098Z,2.23
2018-06-28T20:34:33.475Z,2.60
2018-06-28T20:37:02.322Z,2.50
2018-06-28T20:39:31.033Z,2.50
2018-06-28T20:42:00.663Z,2.30
2018-06-28T20:44:29.940Z,2.27
2018-06-28T20:46:59.389Z,2.20
2018-06-28T20:49:28.248Z,2.43
2018-06-28T20:51:57.211Z,2.50
2018-06-28T20:54:26.031Z,2.03
2018-06-28T20:56:54.852Z,2.23
2018-06-28T20:59:26.306Z,2.33
2018-06-28T21:01:54.967Z,2.17
2018-06-28T21:04:23.656Z,2.13
2018-06-28T21:06:52.192Z,2.40
2018-06-28T21:09:21.525Z,2.30
2018-06-28T21:11:50.074Z,2.10
2018-06-28T21:14:19.522Z,3.43
2018-06-28T21:16:48.444Z,2.50
2018-06-28T21:19:17.530Z,2.67
2018-06-28T21:21:45.829Z,2.57
2018-06-28T21:24:14.438Z,3.13
2018-06-28T21:26:43.070Z,2.50
2018-06-28T21:29:11.583Z,2.30
2018-06-28T21:31:41.333Z,2.90
2018-06-28T21:34:09.972Z,2.13
2018-06-28T21:36:38.598Z,2.63
2018-06-28T21:39:09.151Z,2.60
2018-06-28T21:41:37.790Z,2.20
2018-06-28T21:44:06.376Z,2.43
2018-06-28T21:46:35.244Z,2.70
2018-06-28T21:49:04.928Z,2.60
2018-06-28T21:51:34.227Z,2.47
2018-06-28T21:54:03.636Z,2.80
2018-06-28T21:56:33.661Z,2.13
2018-06-28T21:59:02.813Z,2.60
2018-06-28T22:01:31.427Z,2.30
2018-06-28T22:04:00.082Z,2.70
2018-06-28T22:06:28.752Z,2.33
2018-06-28T22:08:57.311Z,2.37
2018-06-28T22:11:26.079Z,2.40
2018-06-28T22:13:54.697Z,2.40
2018-06-28T22:16:23.290Z,2.27
2018-06-28T22:18:52.239Z,2.70
2018-06-28T22:21:20.490Z,2.30
2018-06-28T22:23:49.992Z,2.07
2018-06-28T22:26:18.712Z,2.70
2018-06-28T22:28:48.078Z,2.60
2018-06-28T22:31:17.695Z,2.57
2018-06-28T22:33:46.976Z,2.63
2018-06-28T22:36:18.128Z,2.70
2018-06-28T22:38:47.377Z,2.90
2018-06-28T22:41:15.993Z,2.50
2018-06-28T22:43:44.591Z,2.50
2018-06-28T22:46:13.203Z,2.90
2018-06-28T22:48:41.565Z,2.73
2018-06-28T22:51:10.103Z,2.90
2018-06-28T22:53:38.816Z,2.70
2018-06-28T22:56:07.391Z,2.73
2018-06-28T22:58:36.028Z,2.57
2018-06-28T23:01:04.314Z,2.53
2018-06-28T23:03:33.206Z,2.73
2018-06-28T23:06:01.580Z,2.63
2018-06-28T23:08:29.858Z,2.87
2018-06-28T23:10:58.484Z,2.73
2018-06-28T23:13:27.086Z,2.40
2018-06-28T23:15:55.711Z,3.10
2018-06-28T23:18:24.242Z,3.00
2018-06-28T23:20:52.860Z,2.77
2018-06-28T23:23:21.194Z,3.20
2018-06-28T23:25:50.614Z,3.13
2018-06-28T23:28:20.289Z,2.90
2018-06-28T23:30:48.962Z,2.90
2018-06-28T23:33:18.563Z,3.20
2018-06-28T23:35:47.239Z,3.17
2018-06-28T23:38:15.838Z,3.00
2018-06-28T23:40:44.355Z,3.03
2018-06-28T23:43:12.926Z,3.00
2018-06-28T23:45:43.563Z,3.00
2018-06-28T23:48:13.220Z,3.20
2018-06-28T23:50:41.778Z,3.13
2018-06-28T23:53:10.496Z,3.47
2018-06-28T23:55:39.119Z,3.43
2018-06-28T23:58:07.686Z,2.90
